Time;durP1;ratioP1;P1;durP2;ratioP2;P2;SDS_P1;SDS_P2;PMS_P1;PMS_P2;Temp;Humidity;BMP_temperature;BMP_pressure;BME280_temperature;BME280_humidity;BME280_pressure;Samples;Min_cycle;Max_cycle;Signal;HPM_P1;HPM_P2
2022/04/02 00:00:26;;;;;;;7.22;2.95;;;;;;;0.72;90.64;101741.22;5045523;28;20032;-68
2022/04/02 00:02:51;;;;;;;8.48;2.95;;;;;;;0.71;90.61;101746.44;5043796;28;20037;-69
2022/04/02 00:05:17;;;;;;;3.42;2.55;;;;;;;0.67;90.48;101745.53;5024884;28;20032;-68
2022/04/02 00:07:42;;;;;;;5.72;3.28;;;;;;;0.65;90.39;101748.09;5044793;28;20438;-68
2022/04/02 00:10:08;;;;;;;7.32;2.95;;;;;;;0.63;90.20;101747.22;5022829;28;20123;-68
2022/04/02 00:12:34;;;;;;;5.43;3.08;;;;;;;0.60;90.55;101744.56;5045230;28;20047;-68
2022/04/02 00:14:59;;;;;;;6.45;3.13;;;;;;;0.57;90.11;101738.44;5043685;28;20021;-68
2022/04/02 00:17:25;;;;;;;6.28;3.10;;;;;;;0.56;90.36;101736.69;5044708;28;20089;-68
2022/04/02 00:19:52;;;;;;;5.25;2.88;;;;;;;0.52;90.06;101741.00;5043283;28;20044;-68
2022/04/02 00:22:18;;;;;;;7.72;2.97;;;;;;;0.48;89.88;101745.31;5044248;28;20735;-68
2022/04/02 00:24:43;;;;;;;7.38;3.03;;;;;;;0.44;90.13;101742.66;5044268;28;20090;-67
2022/04/02 00:27:09;;;;;;;5.65;2.70;;;;;;;0.39;89.79;101753.91;5046015;28;20037;-67
2022/04/02 00:29:38;;;;;;;6.22;2.75;;;;;;;0.36;89.02;101751.28;5045660;28;20027;-67
2022/04/02 00:32:05;;;;;;;7.10;3.00;;;;;;;0.34;89.16;101752.09;5027686;28;20036;-67
2022/04/02 00:34:31;;;;;;;4.85;2.80;;;;;;;0.32;88.80;101751.22;5046209;28;20120;-67
2022/04/02 00:36:56;;;;;;;7.00;2.80;;;;;;;0.31;88.60;101754.66;5045635;28;20311;-67
2022/04/02 00:39:22;;;;;;;7.15;2.63;;;;;;;0.29;88.51;101751.16;5045023;28;20071;-68
2022/04/02 00:41:47;;;;;;;6.97;2.60;;;;;;;0.26;88.12;101749.41;5045094;28;20127;-68
2022/04/02 00:44:17;;;;;;;7.10;2.88;;;;;;;0.26;88.25;101749.41;5027424;28;20125;-68
2022/04/02 00:46:43;;;;;;;6.20;2.97;;;;;;;0.25;88.02;101748.53;5027067;28;20024;-68
2022/04/02 00:49:11;;;;;;;6.55;3.00;;;;;;;0.22;88.44;101750.22;5043927;28;20071;-68
2022/04/02 00:51:41;;;;;;;5.28;3.03;;;;;;;0.18;88.08;101745.84;5025031;28;20040;-68
2022/04/02 00:54:08;;;;;;;5.07;3.08;;;;;;;0.13;88.42;101749.25;5008587;28;20472;-68
2022/04/02 00:56:35;;;;;;;5.80;2.72;;;;;;;0.09;87.89;101747.47;5045890;28;20075;-67
2022/04/02 00:59:01;;;;;;;5.93;3.10;;;;;;;0.03;88.14;101751.72;5045751;28;20492;-68
2022/04/02 01:01:26;;;;;;;6.05;2.50;;;;;;;-0.01;87.96;101756.00;5031011;28;20039;-68
2022/04/02 01:03:52;;;;;;;5.63;2.75;;;;;;;-0.05;87.25;101757.69;5030200;28;20028;-68
2022/04/02 01:06:17;;;;;;;5.25;3.10;;;;;;;-0.08;87.33;101752.47;5015105;28;20028;-68
2022/04/02 01:08:43;;;;;;;7.22;2.90;;;;;;;-0.09;87.51;101760.25;5048940;28;20640;-68
2022/04/02 01:11:09;;;;;;;10.55;3.30;;;;;;;-0.15;87.16;101758.44;5049072;28;20036;-68
2022/04/02 01:13:35;;;;;;;4.78;3.17;;;;;;;-0.20;87.46;101757.50;5041974;28;20035;-68
2022/04/02 01:16:01;;;;;;;8.05;3.40;;;;;;;-0.25;87.59;101761.75;5029823;28;20037;-67
2022/04/02 01:18:28;;;;;;;5.05;2.95;;;;;;;-0.31;87.24;101760.84;5048434;28;20033;-68
2022/04/02 01:20:53;;;;;;;4.95;2.83;;;;;;;-0.36;87.21;101765.09;5048463;28;20033;-68
2022/04/02 01:23:19;;;;;;;7.88;3.00;;;;;;;-0.42;87.02;101763.25;5029495;28;20148;-68
2022/04/02 01:25:45;;;;;;;5.10;2.85;;;;;;;-0.46;87.47;101765.78;5046593;28;20063;-68
2022/04/02 01:28:10;;;;;;;6.65;2.78;;;;;;;-0.51;86.90;101765.72;5042982;28;20721;-68
2022/04/02 01:30:36;;;;;;;5.72;3.78;;;;;;;-0.54;86.66;101765.69;5027218;28;20329;-68
2022/04/02 01:33:02;;;;;;;7.45;3.13;;;;;;;-0.55;86.35;101769.13;5040824;28;20032;-68
2022/04/02 01:35:27;;;;;;;6.93;2.72;;;;;;;-0.59;86.42;101767.34;5028580;28;20067;-68
2022/04/02 01:37:53;;;;;;;6.03;2.80;;;;;;;-0.64;86.42;101762.06;5026683;28;20656;-68
2022/04/02 01:40:19;;;;;;;4.18;2.67;;;;;;;-0.67;86.23;101759.41;5045336;28;20602;-69
2022/04/02 01:42:45;;;;;;;7.07;3.05;;;;;;;-0.70;86.52;101764.56;5047321;28;20491;-68
2022/04/02 01:45:11;;;;;;;6.22;3.03;;;;;;;-0.73;86.48;101765.38;5029323;28;20485;-68
2022/04/02 01:47:37;;;;;;;10.27;2.83;;;;;;;-0.73;86.18;101761.91;5046077;28;20690;-68
2022/04/02 01:50:05;;;;;;;6.03;2.67;;;;;;;-0.72;86.38;101766.25;5042911;28;20537;-68
2022/04/02 01:52:30;;;;;;;10.82;3.45;;;;;;;-0.70;86.78;101764.56;5048803;28;21534;-69
2022/04/02 01:54:56;;;;;;;5.72;3.25;;;;;;;-0.71;86.36;101761.06;5047822;28;21884;-68
2022/04/02 01:57:21;;;;;;;5.97;3.10;;;;;;;-0.72;86.37;101772.34;5051556;28;20036;-68
2022/04/02 01:59:49;;;;;;;6.60;2.95;;;;;;;-0.74;86.22;101765.34;5052158;28;20031;-68
2022/04/02 02:02:16;;;;;;;4.75;2.95;;;;;;;-0.74;86.20;101776.66;5018772;28;20052;-68
2022/04/02 02:04:41;;;;;;;5.72;2.85;;;;;;;-0.73;86.43;101765.38;5052742;28;20694;-68
2022/04/02 02:07:07;;;;;;;6.05;3.38;;;;;;;-0.72;86.58;101777.53;5052367;28;20024;-68
2022/04/02 02:09:33;;;;;;;7.10;3.00;;;;;;;-0.72;86.63;101780.13;5053211;28;20040;-68
2022/04/02 02:12:00;;;;;;;6.07;2.95;;;;;;;-0.69;86.69;101784.53;5054016;28;20052;-68
2022/04/02 02:14:26;;;;;;;6.80;2.85;;;;;;;-0.69;86.45;101781.91;5035046;28;20494;-68
2022/04/02 02:16:51;;;;;;;5.65;2.75;;;;;;;-0.70;86.34;101786.22;5051965;28;20052;-68
2022/04/02 02:19:17;;;;;;;7.90;2.88;;;;;;;-0.71;85.93;101787.09;5037370;28;20036;-68
2022/04/02 02:21:42;;;;;;;6.43;2.97;;;;;;;-0.75;85.92;101787.91;5053038;28;20052;-68
2022/04/02 02:24:08;;;;;;;4.07;2.80;;;;;;;-0.78;85.71;101787.84;5019990;28;20078;-68
2022/04/02 02:26:34;;;;;;;6.63;2.65;;;;;;;-0.84;85.91;101788.63;5052830;28;20068;-68
2022/04/02 02:29:00;;;;;;;5.75;3.03;;;;;;;-0.88;86.24;101793.75;5053170;28;20076;-68
2022/04/02 02:31:26;;;;;;;7.50;2.92;;;;;;;-0.90;86.21;101793.72;5035287;28;20025;-68
2022/04/02 02:36:36;;;;;;;5.65;2.85;;;;;;;-0.92;86.27;101797.13;5032290;28;20738;-68
2022/04/02 02:39:01;;;;;;;5.35;3.08;;;;;;;-0.92;85.99;101789.31;5014775;28;20778;-68
2022/04/02 02:41:27;;;;;;;5.68;2.70;;;;;;;-0.92;86.23;101794.53;5030671;28;20036;-68
2022/04/02 02:43:52;;;;;;;5.88;2.83;;;;;;;-0.93;85.99;101796.25;5053339;28;20624;-68
2022/04/02 02:46:18;;;;;;;9.40;2.97;;;;;;;-0.92;85.96;101797.13;5020122;28;20124;-68
2022/04/02 02:48:45;;;;;;;9.27;2.80;;;;;;;-0.96;86.12;101799.66;5052472;28;20469;-68
2022/04/02 02:51:10;;;;;;;2.80;2.47;;;;;;;-0.98;85.88;101796.16;5052485;28;20021;-68
2022/04/02 02:53:36;;;;;;;7.00;2.80;;;;;;;-1.01;86.29;101801.31;5032679;28;20040;-68
2022/04/02 02:56:01;;;;;;;6.78;3.20;;;;;;;-1.03;86.10;101796.94;5049532;28;20024;-68
2022/04/02 02:58:27;;;;;;;9.40;3.55;;;;;;;-1.06;85.88;101800.34;5052856;28;20067;-68
2022/04/02 03:00:53;;;;;;;5.85;2.65;;;;;;;-1.11;85.86;101800.28;5049433;28;20281;-68
2022/04/02 03:03:19;;;;;;;8.90;2.90;;;;;;;-1.13;85.95;101796.75;5018626;28;20044;-67
2022/04/02 03:05:45;;;;;;;5.75;3.00;;;;;;;-1.15;86.01;101798.47;5031702;28;20217;-68
2022/04/02 03:08:11;;;;;;;8.13;3.15;;;;;;;-1.18;86.19;101802.72;5048046;28;20029;-68
2022/04/02 03:10:36;;;;;;;6.97;2.75;;;;;;;-1.23;86.41;101805.25;5032811;28;20021;-68
2022/04/02 03:13:02;;;;;;;6.18;3.15;;;;;;;-1.27;86.36;101806.00;5052033;28;20040;-68
2022/04/02 03:15:28;;;;;;;7.28;2.80;;;;;;;-1.31;86.07;101802.47;5020121;28;20051;-67
2022/04/02 03:17:54;;;;;;;6.68;2.60;;;;;;;-1.33;86.37;101804.19;5032459;28;20420;-68
2022/04/02 03:20:21;;;;;;;9.02;2.80;;;;;;;-1.34;86.52;101807.63;5033824;28;20165;-68
2022/04/02 03:22:48;;;;;;;4.63;2.83;;;;;;;-1.35;86.34;101812.78;5018171;28;20449;-68
2022/04/02 03:25:21;;;;;;;7.60;3.30;;;;;;;-1.38;86.16;101805.81;5030901;28;20045;-68
2022/04/02 03:27:47;;;;;;;5.07;2.97;;;;;;;-1.40;86.43;101810.13;5031550;28;20032;-67
2022/04/02 03:30:20;;;;;;;4.85;2.50;;;;;;;-1.43;86.34;101816.13;5047420;28;20167;-68
2022/04/02 03:32:46;;;;;;;9.02;2.90;;;;;;;-1.44;86.47;101811.78;5047850;28;20428;-68
2022/04/02 03:35:14;;;;;;;3.83;2.38;;;;;;;-1.45;86.69;101811.72;5014516;28;20037;-68
2022/04/02 03:37:41;;;;;;;7.28;3.05;;;;;;;-1.48;86.52;101809.94;5048064;28;20315;-68
2022/04/02 03:40:09;;;;;;;9.63;2.75;;;;;;;-1.49;86.75;101813.41;5034232;28;20113;-68
2022/04/02 03:42:35;;;;;;;4.38;2.50;;;;;;;-1.50;86.66;101809.06;5030017;28;20265;-68
2022/04/02 03:45:01;;;;;;;7.57;2.53;;;;;;;-1.51;86.63;101821.16;5048510;28;20680;-67
2022/04/02 03:47:29;;;;;;;8.13;3.08;;;;;;;-1.52;86.94;101814.22;5029770;28;20714;-68
2022/04/02 03:49:54;;;;;;;7.50;2.70;;;;;;;-1.53;86.74;101811.59;5047120;28;20306;-67
2022/04/02 03:52:20;;;;;;;4.95;3.00;;;;;;;-1.51;86.83;101813.34;5048989;28;20040;-68
2022/04/02 03:54:45;;;;;;;6.57;2.60;;;;;;;-1.52;87.02;101814.22;5031190;28;20144;-68
2022/04/02 03:57:12;;;;;;;6.30;3.08;;;;;;;-1.53;86.86;101817.66;5028977;28;21403;-67
2022/04/02 03:59:40;;;;;;;6.43;2.60;;;;;;;-1.52;86.93;101819.41;5048216;28;20635;-68
2022/04/02 04:02:06;;;;;;;5.68;2.58;;;;;;;-1.51;86.92;101825.47;5027935;28;20029;-67
2022/04/02 04:04:32;;;;;;;9.13;2.65;;;;;;;-1.51;86.96;101831.53;5048127;28;20036;-68
2022/04/02 04:06:58;;;;;;;12.82;2.60;;;;;;;-1.54;86.88;101828.88;5048215;28;20039;-68
2022/04/02 04:09:23;;;;;;;4.80;2.30;;;;;;;-1.54;86.75;101833.19;5029477;28;20043;-67
2022/04/02 04:11:49;;;;;;;5.80;2.88;;;;;;;-1.56;86.99;101840.97;5030829;28;20056;-68
2022/04/02 04:14:15;;;;;;;8.27;2.67;;;;;;;-1.58;86.91;101839.19;5030709;28;20384;-68
2022/04/02 04:16:41;;;;;;;5.30;2.33;;;;;;;-1.58;86.83;101840.06;5047659;28;20032;-68
2022/04/02 04:19:07;;;;;;;5.00;2.70;;;;;;;-1.58;86.96;101842.66;5048005;28;20040;-68
2022/04/02 04:21:34;;;;;;;5.32;2.38;;;;;;;-1.59;86.93;101840.03;5030078;28;20462;-68
2022/04/02 04:24:00;;;;;;;6.05;2.53;;;;;;;-1.61;86.92;101845.19;5030905;28;20296;-68
2022/04/02 04:26:25;;;;;;;6.43;2.40;;;;;;;-1.62;86.70;101843.44;5048481;28;20387;-68
2022/04/02 04:28:51;;;;;;;7.18;2.35;;;;;;;-1.61;86.75;101845.19;5048181;28;20033;-68
2022/04/02 04:31:18;;;;;;;9.10;3.13;;;;;;;-1.60;86.69;101841.75;5046909;28;20772;-68
2022/04/02 04:33:47;;;;;;;5.18;2.35;;;;;;;-1.59;86.73;101843.50;5047940;28;20036;-68
2022/04/02 04:36:15;;;;;;;4.68;2.15;;;;;;;-1.55;86.75;101847.03;5025592;28;20033;-68
2022/04/02 04:38:44;;;;;;;4.10;2.45;;;;;;;-1.53;87.01;101853.16;5016402;28;20089;-68
2022/04/02 04:41:09;;;;;;;4.57;2.50;;;;;;;-1.49;87.02;101854.09;5047840;28;20387;-68
2022/04/02 04:43:35;;;;;;;4.65;2.22;;;;;;;-1.48;86.88;101861.91;5047301;28;20052;-68
2022/04/02 04:46:03;;;;;;;6.88;2.92;;;;;;;-1.49;86.56;101859.28;5046284;28;20037;-68
2022/04/02 04:48:28;;;;;;;11.60;2.58;;;;;;;-1.55;86.42;101863.50;5010791;28;20040;-68
2022/04/02 04:50:54;;;;;;;5.60;2.30;;;;;;;-1.57;86.40;101859.97;5027268;28;20044;-67
2022/04/02 04:53:19;;;;;;;12.73;2.50;;;;;;;-1.57;86.42;101865.19;5046973;28;20072;-68
2022/04/02 04:55:45;;;;;;;6.63;2.90;;;;;;;-1.58;86.76;101863.44;5047630;28;20088;-68
2022/04/02 04:58:11;;;;;;;3.25;2.00;;;;;;;-1.56;86.45;101866.06;5031070;28;20495;-68
2022/04/02 05:00:36;;;;;;;5.75;2.28;;;;;;;-1.54;86.27;101866.97;5046554;28;20033;-68
2022/04/02 05:03:02;;;;;;;5.55;2.40;;;;;;;-1.54;86.37;101865.25;5029251;28;20570;-68
2022/04/02 05:05:28;;;;;;;7.25;2.22;;;;;;;-1.49;86.28;101880.09;5030275;28;20036;-69
2022/04/02 05:07:54;;;;;;;4.57;2.17;;;;;;;-1.48;86.48;101881.81;5043848;28;20412;-67
2022/04/02 05:10:20;;;;;;;2.85;2.30;;;;;;;-1.47;86.58;101879.25;5029334;28;20150;-67
2022/04/02 05:12:45;;;;;;;5.32;2.22;;;;;;;-1.46;86.76;101880.13;5048022;28;20036;-67
2022/04/02 05:15:11;;;;;;;4.45;2.45;;;;;;;-1.48;86.56;101881.81;5029346;28;20097;-67
2022/04/02 05:17:37;;;;;;;5.47;2.20;;;;;;;-1.50;86.75;101884.38;5047712;28;20117;-67
2022/04/02 05:20:04;;;;;;;4.35;2.20;;;;;;;-1.51;86.56;101888.69;5028828;28;20709;-67
2022/04/02 05:22:30;;;;;;;5.97;2.35;;;;;;;-1.50;86.61;101894.78;5047118;28;20044;-67
2022/04/02 05:24:55;;;;;;;4.40;2.15;;;;;;;-1.50;86.59;101897.38;5029681;28;20051;-67
2022/04/02 05:27:21;;;;;;;4.18;2.05;;;;;;;-1.49;86.68;101890.47;5046316;28;20032;-67
2022/04/02 05:29:46;;;;;;;4.63;2.47;;;;;;;-1.48;86.74;101903.47;5029268;28;20107;-67
2022/04/02 05:32:12;;;;;;;5.80;2.05;;;;;;;-1.45;86.53;101903.56;5049051;28;20028;-67
2022/04/02 05:34:38;;;;;;;6.50;2.35;;;;;;;-1.43;86.72;101904.44;5051561;28;20106;-67
2022/04/02 05:37:04;;;;;;;4.72;2.20;;;;;;;-1.43;86.55;101896.66;5031227;28;20389;-67
2022/04/02 05:39:29;;;;;;;6.28;2.30;;;;;;;-1.42;86.55;101902.75;5033667;28;20056;-67
2022/04/02 05:41:56;;;;;;;6.30;2.10;;;;;;;-1.39;86.51;101910.59;5035816;28;20483;-68
2022/04/02 05:44:23;;;;;;;4.47;2.10;;;;;;;-1.37;86.49;101901.09;5049672;28;20044;-68
2022/04/02 05:46:49;;;;;;;2.90;2.17;;;;;;;-1.37;86.28;101907.19;5049349;28;20037;-67
2022/04/02 05:49:14;;;;;;;6.53;2.35;;;;;;;-1.33;86.27;101910.72;5050939;28;20048;-67
2022/04/02 05:51:40;;;;;;;3.85;1.90;;;;;;;-1.29;86.38;101912.56;5033767;28;20101;-67
2022/04/02 05:54:05;;;;;;;4.10;2.10;;;;;;;-1.25;86.19;101924.75;5050412;28;20040;-67
2022/04/02 05:56:33;;;;;;;5.05;2.13;;;;;;;-1.21;86.15;101910.09;5032283;28;20272;-67
2022/04/02 05:58:59;;;;;;;4.60;2.15;;;;;;;-1.16;86.10;101924.06;5030143;28;20063;-67
2022/04/02 06:01:24;;;;;;;5.47;2.30;;;;;;;-1.11;86.64;101924.16;5032532;28;20402;-67
2022/04/02 06:03:49;;;;;;;5.53;2.10;;;;;;;-1.06;86.63;101926.84;5033327;28;20033;-67
2022/04/02 06:06:15;;;;;;;4.60;2.33;;;;;;;-1.03;86.14;101932.13;5050450;28;20017;-67
2022/04/02 06:08:41;;;;;;;2.55;2.28;;;;;;;-1.00;86.09;101929.56;5015756;28;20075;-67
2022/04/02 06:11:06;;;;;;;4.22;2.53;;;;;;;-0.98;86.37;101936.56;5050990;28;20659;-67
2022/04/02 06:13:32;;;;;;;7.53;2.42;;;;;;;-0.93;85.97;101934.03;5031630;28;20383;-67
2022/04/02 06:15:58;;;;;;;4.63;2.38;;;;;;;-0.88;86.34;101936.75;5047310;28;21125;-67
2022/04/02 06:18:23;;;;;;;4.80;2.30;;;;;;;-0.82;86.22;101937.75;5031045;28;20040;-67
2022/04/02 06:20:49;;;;;;;4.43;2.42;;;;;;;-0.76;86.25;101941.31;5049582;28;20037;-68
2022/04/02 06:23:15;;;;;;;7.95;2.70;;;;;;;-0.70;86.26;101944.91;5048552;28;20063;-68
2022/04/02 06:25:41;;;;;;;3.40;2.00;;;;;;;-0.64;86.28;101949.38;5046568;28;20032;-68
2022/04/02 06:28:07;;;;;;;5.38;2.45;;;;;;;-0.59;86.31;101946.84;5049150;28;20415;-67
2022/04/02 06:30:32;;;;;;;6.20;3.13;;;;;;;-0.52;86.39;101950.41;5032410;28;20025;-68
2022/04/02 06:33:00;;;;;;;4.00;2.38;;;;;;;-0.48;86.35;101952.25;5028739;28;20036;-68
2022/04/02 06:35:29;;;;;;;7.13;2.97;;;;;;;-0.42;86.58;101952.34;5050000;28;20551;-68
2022/04/02 06:37:55;;;;;;;5.93;2.90;;;;;;;-0.37;86.09;101952.44;5047443;28;20625;-68
2022/04/02 06:40:22;;;;;;;6.47;2.67;;;;;;;-0.35;86.01;101969.84;5013152;28;20461;-68
2022/04/02 06:42:48;;;;;;;6.90;2.97;;;;;;;-0.33;85.38;101959.47;5030089;28;20407;-68
2022/04/02 06:45:14;;;;;;;4.90;2.92;;;;;;;-0.33;85.71;101970.72;5031608;28;20679;-68
2022/04/02 06:47:40;;;;;;;4.05;2.20;;;;;;;-0.32;85.87;101969.88;5034327;28;20041;-68
2022/04/02 06:50:11;;;;;;;6.57;2.60;;;;;;;-0.28;85.84;101976.91;5018471;28;22074;-69
2022/04/02 06:52:37;;;;;;;5.60;2.55;;;;;;;-0.23;85.48;101982.19;5029527;28;20483;-68
2022/04/02 06:55:03;;;;;;;6.05;2.72;;;;;;;-0.21;85.55;101983.06;5032766;28;20033;-68
2022/04/02 06:57:29;;;;;;;4.00;2.65;;;;;;;-0.16;85.49;101981.44;5049650;28;20033;-67
2022/04/02 06:59:55;;;;;;;4.53;2.72;;;;;;;-0.10;85.55;101982.41;5052431;28;20965;-67
2022/04/02 07:02:20;;;;;;;3.90;2.60;;;;;;;-0.05;85.94;101983.38;5049885;28;20076;-67
2022/04/02 07:04:46;;;;;;;3.97;2.42;;;;;;;0.00;85.41;101984.34;5050330;28;20028;-68
2022/04/02 07:07:12;;;;;;;6.55;2.97;;;;;;;0.03;85.34;101986.97;5032168;28;20028;-68
2022/04/02 07:09:37;;;;;;;6.65;2.75;;;;;;;0.08;85.34;101987.94;5034032;28;20119;-68
2022/04/02 07:12:03;;;;;;;4.88;2.63;;;;;;;0.11;85.47;101990.56;5052805;28;20482;-68
2022/04/02 07:14:29;;;;;;;4.18;2.70;;;;;;;0.16;85.08;101992.38;5017065;28;20183;-70
2022/04/02 07:16:55;;;;;;;5.75;2.67;;;;;;;0.21;85.33;101996.81;5032375;28;20711;-68
2022/04/02 07:19:23;;;;;;;6.20;2.58;;;;;;;0.28;85.10;102002.13;5051907;28;20090;-69
2022/04/02 07:21:53;;;;;;;6.72;2.70;;;;;;;0.35;84.62;101999.66;5050905;28;20114;-69
2022/04/02 07:24:20;;;;;;;5.55;2.75;;;;;;;0.42;84.43;102013.63;5051763;28;20032;-67
2022/04/02 07:26:46;;;;;;;4.07;2.72;;;;;;;0.50;84.83;102008.56;5035396;28;20033;-68
2022/04/02 07:29:13;;;;;;;5.28;2.90;;;;;;;0.55;84.44;102004.28;5030189;28;20039;-67
2022/04/02 07:31:39;;;;;;;5.38;3.17;;;;;;;0.61;84.63;102017.38;5027761;28;20062;-67
2022/04/02 07:34:05;;;;;;;3.75;2.75;;;;;;;0.65;84.53;102018.34;5027530;28;20476;-68
2022/04/02 07:36:42;;;;;;;4.68;3.10;;;;;;;0.67;84.23;102014.88;5046285;28;20090;-68
2022/04/02 07:39:47;;;;;;;6.25;3.28;;;;;;;0.73;84.00;102021.94;5045640;28;20058;-68
2022/04/02 07:42:26;;;;;;;5.30;4.20;;;;;;;0.78;84.24;102016.78;5041532;28;20048;-68
2022/04/02 07:45:03;;;;;;;7.38;3.17;;;;;;;0.84;84.13;102026.41;5029087;28;21832;-67
2022/04/02 07:47:31;;;;;;;6.22;3.08;;;;;;;0.89;84.40;102020.41;5042286;28;20204;-67
2022/04/02 07:50:00;;;;;;;5.32;3.05;;;;;;;0.99;84.06;102024.03;5028153;28;20032;-70
2022/04/02 07:52:27;;;;;;;4.93;2.95;;;;;;;1.08;83.81;102031.06;5030535;28;20267;-67
2022/04/02 07:54:56;;;;;;;4.50;3.00;;;;;;;1.19;83.84;102036.44;5046546;28;20028;-67
2022/04/02 07:57:24;;;;;;;5.68;3.15;;;;;;;1.33;84.12;102032.28;5029795;28;20029;-67
2022/04/02 07:59:57;;;;;;;6.72;2.80;;;;;;;1.47;83.82;102037.66;5032806;28;20090;-67
2022/04/02 08:02:38;;;;;;;4.90;2.70;;;;;;;1.62;83.36;102042.19;5033615;28;20078;-67
2022/04/02 08:05:07;;;;;;;4.18;2.50;;;;;;;1.76;81.85;102050.16;5048759;28;20028;-67
2022/04/02 08:07:34;;;;;;;9.00;2.60;;;;;;;1.91;81.98;102040.75;5029892;28;20447;-67
2022/04/02 08:10:10;;;;;;;7.57;2.38;;;;;;;2.01;80.43;102042.56;5051477;28;20036;-68
2022/04/02 08:12:37;;;;;;;5.47;2.28;;;;;;;2.12;80.36;102042.66;5040812;28;20043;-67
2022/04/02 08:15:05;;;;;;;4.03;2.33;;;;;;;2.24;79.05;102041.91;5036227;28;20123;-68
2022/04/02 08:17:32;;;;;;;2.67;1.90;;;;;;;2.34;79.15;102037.63;5051747;28;20029;-67
2022/04/02 08:19:58;;;;;;;4.80;2.40;;;;;;;2.43;77.63;102049.91;5034812;28;21020;-68
2022/04/02 08:22:24;;;;;;;3.67;1.90;;;;;;;2.48;76.59;102055.16;5056298;28;20092;-68
2022/04/02 08:24:50;;;;;;;2.90;1.88;;;;;;;2.57;76.90;102061.34;5021161;28;20472;-67
2022/04/02 08:27:24;;;;;;;2.88;1.80;;;;;;;2.62;73.02;102057.88;5052687;28;20028;-67
2022/04/02 08:30:10;;;;;;;4.53;1.92;;;;;;;2.66;74.52;102054.44;5051954;28;20178;-68
2022/04/02 08:32:41;;;;;;;2.53;1.63;;;;;;;2.76;72.88;102060.59;5054952;28;20595;-68
2022/04/02 08:35:10;;;;;;;2.65;1.70;;;;;;;2.77;74.20;102071.06;5040128;28;20020;-68
2022/04/02 08:37:53;;;;;;;4.68;1.88;;;;;;;2.78;71.48;102064.09;5058506;28;20028;-68
2022/04/02 08:40:37;;;;;;;4.32;1.90;;;;;;;2.77;71.30;102076.28;5033014;28;20028;-68
2022/04/02 08:43:44;;;;;;;4.50;2.30;;;;;;;2.85;73.36;102079.84;5032644;28;20045;-68
2022/04/02 08:46:29;;;;;;;5.00;2.38;;;;;;;2.92;75.10;102092.94;4968771;28;20098;-68
2022/04/02 08:48:59;;;;;;;6.47;2.70;;;;;;;2.93;76.40;102094.69;5027648;28;20040;-68
2022/04/02 08:51:41;;;;;;;3.88;2.35;;;;;;;2.94;74.74;102089.50;5050913;28;20032;-68
2022/04/02 08:54:23;;;;;;;4.32;2.20;;;;;;;2.92;76.30;102087.72;5036249;28;20660;-67
2022/04/02 08:56:55;;;;;;;3.38;2.00;;;;;;;2.87;76.24;102090.31;5049882;28;20047;-67
2022/04/02 08:59:37;;;;;;;5.35;2.45;;;;;;;2.91;76.99;102093.81;5037689;28;20028;-68
2022/04/02 09:02:23;;;;;;;4.72;2.40;;;;;;;2.91;76.38;102091.22;5046962;28;20032;-68
2022/04/02 09:05:24;;;;;;;6.50;2.70;;;;;;;3.04;76.88;102094.81;5050456;28;20064;-68
2022/04/02 09:08:28;;;;;;;7.72;3.17;;;;;;;3.18;76.75;102095.75;5030915;28;20044;-69
2022/04/02 09:11:12;;;;;;;4.10;2.30;;;;;;;3.32;75.71;102087.94;5048365;28;20071;-69
2022/04/02 09:13:50;;;;;;;6.45;2.70;;;;;;;3.57;74.41;102095.94;5049489;28;20032;-69
2022/04/02 09:16:26;;;;;;;4.97;2.35;;;;;;;3.80;74.95;102096.00;5049700;28;20082;-68
2022/04/02 09:19:10;;;;;;;4.53;1.90;;;;;;;3.96;74.37;102098.66;5049325;28;20036;-69
2022/04/02 09:21:54;;;;;;;;;;;;;;;3.97;69.08;102097.78;5049370;28;20068;-69
2022/04/02 09:24:45;;;;;;;;;;;;;;;3.96;66.51;102093.41;5050630;28;20338;-69
2022/04/02 09:27:48;;;;;;;2.85;1.35;;;;;;;3.97;68.62;102092.53;5030948;28;20389;-68
2022/04/02 09:30:40;;;;;;;2.45;1.23;;;;;;;4.02;63.51;102095.16;5049999;28;20115;-67
2022/04/02 09:33:38;;;;;;;2.25;1.55;;;;;;;4.03;66.50;102102.19;5044822;28;20060;-68
2022/04/02 09:36:30;;;;;;;1.75;1.15;;;;;;;4.01;65.74;102093.41;5019527;28;20036;-68
2022/04/02 09:39:18;;;;;;;2.83;1.67;;;;;;;3.96;66.88;102100.44;5029960;28;20036;-68
2022/04/02 09:42:00;;;;;;;3.47;1.35;;;;;;;3.94;65.51;102101.28;5046510;28;20422;-68
2022/04/02 09:44:29;;;;;;;2.58;1.40;;;;;;;3.90;66.94;102090.78;5030701;28;20910;-68
2022/04/02 09:47:21;;;;;;;1.83;1.40;;;;;;;3.88;65.71;102093.38;5047928;28;20036;-68
2022/04/02 09:50:02;;;;;;;4.45;1.55;;;;;;;3.90;64.39;102099.53;5016503;28;20051;-67
2022/04/02 09:52:27;;;;;;;4.22;1.60;;;;;;;3.97;64.93;102094.31;5044733;28;20028;-68
2022/04/02 09:55:11;;;;;;;3.13;1.50;;;;;;;4.08;64.00;102106.56;5031902;28;20383;-69
2022/04/02 09:57:45;;;;;;;2.72;1.40;;;;;;;4.07;59.53;102096.94;5030928;28;20150;-67
2022/04/02 10:00:20;;;;;;;3.33;1.27;;;;;;;4.01;63.62;102103.91;5044980;28;20041;-68
2022/04/02 10:03:05;;;;;;;2.33;1.40;;;;;;;3.99;65.20;102106.56;5042736;28;20036;-68
2022/04/02 10:05:46;;;;;;;4.25;1.48;;;;;;;3.93;64.55;102104.75;5027979;28;20047;-67
2022/04/02 10:08:35;;;;;;;2.58;1.40;;;;;;;3.88;64.74;102108.25;5047064;28;20032;-66
2022/04/02 10:11:05;;;;;;;4.53;1.27;;;;;;;3.83;65.71;102100.38;5003179;28;20048;-67
2022/04/02 10:13:33;;;;;;;3.05;1.50;;;;;;;3.76;64.49;102098.63;5031198;28;20040;-67
2022/04/02 10:15:59;;;;;;;4.30;1.40;;;;;;;3.70;64.70;102098.59;5047712;28;20075;-67
2022/04/02 10:18:26;;;;;;;3.75;1.65;;;;;;;3.72;65.93;102096.84;5049578;28;20020;-67
2022/04/02 10:20:53;;;;;;;2.67;1.30;;;;;;;3.82;64.92;102095.13;5033037;28;20040;-67
2022/04/02 10:23:23;;;;;;;4.57;1.55;;;;;;;3.98;64.69;102088.19;5017879;28;20028;-68
2022/04/02 10:26:02;;;;;;;3.63;1.45;;;;;;;3.98;63.53;102094.28;5051487;28;20070;-67
2022/04/02 10:28:30;;;;;;;3.85;1.40;;;;;;;3.99;64.10;102087.31;5050432;28;20497;-67
2022/04/02 10:30:57;;;;;;;5.13;1.55;;;;;;;3.98;63.64;102093.44;5050362;28;20032;-68
2022/04/02 10:33:28;;;;;;;2.55;1.60;;;;;;;4.05;63.60;102090.81;5034197;28;20056;-66
2022/04/02 10:35:56;;;;;;;3.78;1.20;;;;;;;4.11;63.58;102089.97;5019524;28;20458;-67
2022/04/02 10:38:32;;;;;;;2.90;1.30;;;;;;;4.13;62.10;102093.44;5051996;28;20502;-68
2022/04/02 10:40:58;;;;;;;2.53;1.40;;;;;;;4.20;61.56;102100.44;5053365;28;20033;-67
2022/04/02 10:43:28;;;;;;;3.50;1.48;;;;;;;4.16;61.67;102097.81;5054537;28;20048;-68
2022/04/02 10:45:56;;;;;;;3.55;1.55;;;;;;;4.12;63.57;102104.81;5052545;28;20089;-66
2022/04/02 10:48:43;;;;;;;4.00;2.17;;;;;;;4.07;62.75;102101.31;5022727;28;20082;-67
2022/04/02 10:51:12;;;;;;;5.45;1.88;;;;;;;4.02;63.52;102097.78;5050584;28;20040;-67
2022/04/02 10:53:42;;;;;;;3.20;1.60;;;;;;;4.04;62.80;102091.69;5032304;28;21582;-67
2022/04/02 10:56:15;;;;;;;4.13;1.70;;;;;;;4.13;63.50;102101.31;5021838;28;20033;-67
2022/04/02 10:58:46;;;;;;;3.47;1.50;;;;;;;4.17;63.55;102094.31;5034479;28;20031;-67
2022/04/02 11:01:12;;;;;;;4.60;1.60;;;;;;;4.21;64.26;102094.31;5051594;28;20872;-66
2022/04/02 11:03:39;;;;;;;4.35;1.60;;;;;;;4.23;63.84;102107.44;5031833;28;20130;-66
2022/04/02 11:06:06;;;;;;;7.57;1.58;;;;;;;4.18;64.02;102102.22;5050899;28;20071;-66
2022/04/02 11:08:33;;;;;;;1.77;1.10;;;;;;;4.15;64.48;102107.44;5033427;28;20032;-67
2022/04/02 11:10:59;;;;;;;4.88;1.30;;;;;;;4.06;63.90;102099.56;5037095;28;20043;-67
2022/04/02 11:13:29;;;;;;;2.97;1.40;;;;;;;4.02;64.15;102095.16;5034985;28;20535;-67
2022/04/02 11:15:55;;;;;;;1.83;1.30;;;;;;;4.10;64.79;102098.69;5051706;28;20043;-67
2022/04/02 11:18:21;;;;;;;3.58;1.33;;;;;;;4.27;64.78;102096.09;5052991;28;20060;-67
2022/04/02 11:20:50;;;;;;;5.15;1.40;;;;;;;4.44;63.45;102101.34;5050899;28;20491;-67
2022/04/02 11:23:20;;;;;;;4.18;1.45;;;;;;;4.43;60.89;102110.09;5033596;28;20032;-67
2022/04/02 11:25:50;;;;;;;6.70;1.40;;;;;;;4.33;59.17;102110.97;5035313;28;20032;-67
2022/04/02 11:28:24;;;;;;;4.15;1.20;;;;;;;4.26;59.75;102103.97;5021503;28;20033;-67
2022/04/02 11:30:52;;;;;;;3.35;1.40;;;;;;;4.23;60.55;102109.22;5051421;28;20118;-67
2022/04/02 11:33:27;;;;;;;5.53;1.20;;;;;;;4.25;61.55;102108.31;5053067;28;20051;-67
2022/04/02 11:35:54;;;;;;;4.03;1.70;;;;;;;4.25;62.45;102097.81;5051904;28;20037;-67
2022/04/02 11:38:20;;;;;;;6.18;1.45;;;;;;;4.29;60.67;102101.31;5037273;28;20834;-67
2022/04/02 11:40:51;;;;;;;3.25;1.48;;;;;;;4.34;61.43;102110.09;5052726;28;20454;-67